Time;durP1;ratioP1;P1;durP2;ratioP2;P2;SDS_P1;SDS_P2;PMS_P1;PMS_P2;Temp;Humidity;BMP_temperature;BMP_pressure;BME280_temperature;BME280_humidity;BME280_pressure;Samples;Min_cycle;Max_cycle;Signal;HPM_P1;HPM_P2
2022/06/20 00:00:48;;;;;;;10.02;6.45;;;;;;;24.90;45.86;95907.59;6204323;22;20039;-78
2022/06/20 00:03:27;;;;;;;12.07;6.82;;;;;;;24.86;45.77;95899.38;6211343;23;20056;-79
2022/06/20 00:08:44;;;;;;;9.60;5.97;;;;;;;24.83;45.85;95911.41;6224146;22;20022;-82
2022/06/20 00:11:54;;;;;;;12.10;5.63;;;;;;;24.86;45.70;95908.19;6221886;22;20021;-81
2022/06/20 00:14:36;;;;;;;11.35;6.72;;;;;;;24.85;45.52;95900.47;6242133;22;20013;-81
2022/06/20 00:23:17;;;;;;;11.63;6.88;;;;;;;24.77;45.59;95903.78;6219916;22;20017;-76
2022/06/20 00:25:44;;;;;;;12.77;6.10;;;;;;;24.72;45.96;95899.31;6215030;23;20556;-76
2022/06/20 00:28:14;;;;;;;12.23;6.20;;;;;;;24.71;45.49;95912.94;6214670;23;20107;-76
2022/06/20 00:30:42;;;;;;;12.98;6.45;;;;;;;24.70;45.66;95908.69;6213782;23;20024;-76
2022/06/20 00:33:11;;;;;;;11.93;6.43;;;;;;;24.69;45.79;95913.25;6214488;23;20020;-76
2022/06/20 00:35:40;;;;;;;15.20;6.75;;;;;;;24.67;46.11;95923.41;6215161;23;20071;-76
2022/06/20 00:38:14;;;;;;;14.55;6.78;;;;;;;24.65;45.51;95918.34;6214363;23;20104;-76
2022/06/20 00:40:46;;;;;;;8.88;6.45;;;;;;;24.65;46.12;95936.22;6214616;23;20025;-76
2022/06/20 00:43:21;;;;;;;12.07;6.78;;;;;;;24.67;46.60;95950.84;6222563;23;20020;-76
2022/06/20 00:45:52;;;;;;;8.90;6.20;;;;;;;24.74;46.56;95953.16;6235629;23;20032;-76
2022/06/20 00:48:25;;;;;;;13.27;6.43;;;;;;;24.78;46.33;95956.84;6231151;23;20032;-76
2022/06/20 00:51:01;;;;;;;12.90;7.35;;;;;;;24.84;46.54;95949.56;6217533;23;20095;-76
2022/06/20 00:53:33;;;;;;;11.60;6.90;;;;;;;24.91;46.53;95965.22;6217421;23;20056;-76
2022/06/20 00:56:05;;;;;;;13.80;7.97;;;;;;;24.88;46.74;95961.22;6216728;23;20028;-77
2022/06/20 00:58:38;;;;;;;12.60;7.78;;;;;;;24.81;47.08;95961.59;6216169;23;20060;-76
2022/06/20 01:01:12;;;;;;;13.45;6.72;;;;;;;24.71;47.27;95968.94;6216125;23;20028;-76
2022/06/20 01:03:45;;;;;;;10.55;7.60;;;;;;;24.62;47.38;95969.59;6216136;23;20032;-76
2022/06/20 01:06:17;;;;;;;13.20;7.35;;;;;;;24.51;48.01;95968.16;6216255;23;20461;-78
2022/06/20 01:08:48;;;;;;;11.13;6.95;;;;;;;24.39;47.83;95965.06;6216118;23;20528;-76
2022/06/20 01:11:19;;;;;;;12.05;7.47;;;;;;;24.25;48.20;95971.09;6216217;23;20029;-76
2022/06/20 01:13:49;;;;;;;13.85;8.02;;;;;;;24.17;48.74;95963.72;6216561;23;20024;-76
2022/06/20 01:16:25;;;;;;;15.80;7.80;;;;;;;24.11;48.75;95956.84;6216486;23;20059;-76
2022/06/20 01:18:54;;;;;;;12.13;7.55;;;;;;;24.09;48.69;95963.53;6216364;23;20020;-76
2022/06/20 01:21:25;;;;;;;12.05;7.82;;;;;;;24.05;48.46;95963.28;6216034;23;20410;-78
2022/06/20 01:24:06;;;;;;;15.38;7.85;;;;;;;24.04;48.54;95972.38;6215723;23;20056;-76
2022/06/20 01:26:46;;;;;;;11.75;7.30;;;;;;;24.01;48.63;95976.41;6215776;23;20063;-76
2022/06/20 01:29:16;;;;;;;14.55;6.80;;;;;;;24.02;48.65;95972.66;6216224;23;20082;-76
2022/06/20 01:31:48;;;;;;;13.50;7.38;;;;;;;24.06;48.79;95983.56;6215695;23;20028;-77
2022/06/20 01:34:17;;;;;;;15.13;6.95;;;;;;;24.09;48.20;95980.31;6216237;23;20408;-76
2022/06/20 01:39:37;;;;;;;15.55;7.55;;;;;;;24.07;48.66;95969.13;6216310;23;20409;-76
2022/06/20 01:42:23;;;;;;;13.27;7.45;;;;;;;24.02;48.24;95969.19;6215649;23;20017;-77
2022/06/20 01:44:59;;;;;;;14.02;7.80;;;;;;;23.98;48.83;95970.84;6215950;23;20059;-76
2022/06/20 01:47:27;;;;;;;15.15;6.93;;;;;;;23.95;48.60;95966.09;6215911;23;20348;-77
2022/06/20 01:50:03;;;;;;;11.90;7.38;;;;;;;23.94;48.47;95972.47;6216013;23;20101;-76
2022/06/20 01:52:34;;;;;;;13.70;6.88;;;;;;;23.94;48.47;95969.81;6215647;23;20122;-76
2022/06/20 01:55:06;;;;;;;13.27;6.57;;;;;;;23.94;48.89;95964.50;6215955;23;20056;-77
2022/06/20 01:57:38;;;;;;;10.43;6.50;;;;;;;23.95;48.72;95960.75;6216004;23;20091;-77
2022/06/20 02:00:12;;;;;;;13.13;7.25;;;;;;;23.97;48.62;95959.41;6215987;23;20366;-78
2022/06/20 02:02:45;;;;;;;15.75;6.97;;;;;;;23.96;48.92;95963.13;6215742;23;20100;-76
2022/06/20 02:05:18;;;;;;;12.32;7.43;;;;;;;23.98;48.82;95965.50;6215981;23;20020;-76
2022/06/20 02:07:47;;;;;;;15.70;8.40;;;;;;;23.99;48.82;95956.47;6215809;23;20024;-77
2022/06/20 02:10:18;;;;;;;11.60;6.93;;;;;;;23.99;48.96;95962.56;6215464;23;20060;-76
2022/06/20 02:12:48;;;;;;;13.85;7.55;;;;;;;24.00;48.65;95960.69;6215895;23;20107;-77
2022/06/20 02:15:19;;;;;;;10.65;7.15;;;;;;;23.98;48.49;95960.19;6215697;23;20078;-76
2022/06/20 02:17:49;;;;;;;12.02;6.57;;;;;;;23.99;48.98;95972.44;6215698;23;20074;-77
2022/06/20 02:20:21;;;;;;;9.25;5.78;;;;;;;24.02;48.84;95963.88;6215603;23;20131;-76
2022/06/20 02:22:50;;;;;;;;;;;;;;;24.07;48.53;95969.13;6215907;23;20104;-77
2022/06/20 02:25:24;;;;;;;14.25;7.35;;;;;;;24.09;48.38;95956.34;6215227;23;19919;-77
2022/06/20 02:27:55;;;;;;;11.02;7.13;;;;;;;24.10;48.91;95960.59;6215594;23;20099;-77
2022/06/20 02:30:24;;;;;;;8.95;6.40;;;;;;;24.08;48.35;95976.06;6215362;23;20051;-77
2022/06/20 02:32:56;;;;;;;11.15;7.22;;;;;;;24.08;48.27;95953.97;6214894;23;20145;-76
2022/06/20 02:35:24;;;;;;;;;;;;;;;24.06;48.18;95970.22;6216074;23;20052;-77
2022/06/20 02:37:51;;;;;;;11.25;8.00;;;;;;;23.98;48.44;95970.84;6214850;23;19975;-76
2022/06/20 02:40:23;;;;;;;10.80;6.55;;;;;;;23.91;48.87;95970.38;6215158;23;20047;-77
2022/06/20 02:42:53;;;;;;;11.82;6.55;;;;;;;23.81;49.08;95960.63;6214713;23;20039;-76
2022/06/20 02:45:25;;;;;;;14.63;7.10;;;;;;;23.76;49.74;95964.13;6215159;23;20100;-77
2022/06/20 02:47:57;;;;;;;13.27;7.07;;;;;;;23.70;49.93;95959.09;6215056;23;20021;-77
2022/06/20 02:50:30;;;;;;;13.52;7.03;;;;;;;23.65;50.13;95952.75;6214861;23;20407;-77
2022/06/20 02:53:05;;;;;;;11.38;7.07;;;;;;;23.59;50.16;95950.41;6214970;23;20027;-76
2022/06/20 02:55:35;;;;;;;11.30;7.13;;;;;;;23.52;50.48;95947.28;6215504;23;20103;-77
2022/06/20 02:58:07;;;;;;;11.30;6.82;;;;;;;23.50;50.50;95952.09;6215268;23;20067;-76
2022/06/20 03:00:40;;;;;;;10.18;6.90;;;;;;;23.47;50.92;95947.34;6214809;23;20016;-77
2022/06/20 03:03:14;;;;;;;12.52;7.75;;;;;;;23.42;51.27;95948.19;6214784;23;20507;-76
2022/06/20 03:05:42;;;;;;;10.27;7.18;;;;;;;23.40;51.22;95937.81;6215010;23;20104;-76
2022/06/20 03:08:11;;;;;;;12.48;7.10;;;;;;;23.43;51.13;95939.91;6215081;23;20052;-76
2022/06/20 03:10:41;;;;;;;12.20;7.10;;;;;;;23.50;50.91;95944.91;6214722;23;20020;-77
2022/06/20 03:13:10;;;;;;;17.33;7.50;;;;;;;23.54;51.25;95945.16;6214917;23;20024;-77
2022/06/20 03:15:43;;;;;;;14.55;7.18;;;;;;;23.53;51.25;95946.25;6215186;23;20409;-79
2022/06/20 03:18:15;;;;;;;8.93;6.95;;;;;;;23.53;51.20;95948.91;6236444;23;20039;-76
2022/06/20 03:20:45;;;;;;;12.23;7.55;;;;;;;23.53;50.99;95948.91;6236311;23;20025;-77
2022/06/20 03:23:18;;;;;;;13.77;7.95;;;;;;;23.49;51.19;95961.97;6229585;23;20025;-76
2022/06/20 03:25:46;;;;;;;14.88;7.78;;;;;;;23.43;51.36;95958.53;6214997;23;20067;-76
2022/06/20 03:28:17;;;;;;;16.95;7.43;;;;;;;23.44;51.46;95964.69;6214525;23;20512;-76
2022/06/20 03:31:05;;;;;;;9.80;7.55;;;;;;;23.48;51.37;95972.88;6214377;23;20460;-78
2022/06/20 03:33:34;;;;;;;9.23;6.72;;;;;;;23.53;51.30;95978.19;6214846;23;20017;-77
2022/06/20 03:36:07;;;;;;;11.18;6.38;;;;;;;23.59;51.31;95995.69;6215585;23;20052;-77
2022/06/20 03:38:36;;;;;;;10.15;7.47;;;;;;;23.60;50.46;96010.59;6215226;23;20123;-77
2022/06/20 03:41:04;;;;;;;12.50;7.22;;;;;;;23.62;50.88;96035.06;6214759;23;20024;-77
2022/06/20 03:43:34;;;;;;;15.18;8.20;;;;;;;23.65;50.74;96031.84;6214709;23;20058;-77
2022/06/20 03:46:06;;;;;;;11.75;7.63;;;;;;;23.68;50.24;96036.63;6214908;23;20055;-77
2022/06/20 03:48:37;;;;;;;12.98;7.18;;;;;;;23.70;49.85;96037.09;6214313;23;20076;-77
2022/06/20 03:51:09;;;;;;;12.93;6.85;;;;;;;23.73;49.30;96038.44;6214784;23;20104;-77
2022/06/20 03:53:42;;;;;;;14.88;6.00;;;;;;;23.78;48.37;96035.75;6215303;23;20032;-77
2022/06/20 03:56:26;;;;;;;13.93;5.82;;;;;;;23.84;48.04;96032.78;6214589;23;20448;-77
2022/06/20 03:59:01;;;;;;;11.13;5.75;;;;;;;23.94;48.22;96037.22;6214838;23;20052;-77
2022/06/20 04:01:36;;;;;;;16.23;6.68;;;;;;;24.01;47.65;96028.91;6229066;23;20044;-77
2022/06/20 04:04:07;;;;;;;10.30;5.82;;;;;;;24.08;47.71;96044.56;6236808;23;20024;-77
2022/06/20 04:06:40;;;;;;;13.57;6.07;;;;;;;24.14;47.37;96022.09;6229516;23;20020;-77
2022/06/20 04:12:04;;;;;;;10.48;5.28;;;;;;;24.22;47.25;96043.59;6234444;23;20056;-77
2022/06/20 04:14:38;;;;;;;9.15;5.40;;;;;;;24.29;47.03;96031.81;6235159;23;20063;-77
2022/06/20 04:20:00;;;;;;;9.65;5.40;;;;;;;24.37;46.79;96044.50;6218341;23;20360;-77
2022/06/20 04:22:32;;;;;;;12.13;6.20;;;;;;;24.40;47.04;96060.75;6219092;23;20464;-77
2022/06/20 04:25:04;;;;;;;20.25;6.75;;;;;;;24.44;47.72;96084.94;6223065;23;20028;-77
2022/06/20 04:27:38;;;;;;;15.07;7.47;;;;;;;24.45;49.64;96114.00;6217521;23;20103;-78
2022/06/20 04:30:18;;;;;;;19.50;6.95;;;;;;;24.46;50.20;96099.56;6216793;23;20021;-77
2022/06/20 04:32:52;;;;;;;24.90;6.60;;;;;;;24.45;51.02;96090.00;6218469;23;20095;-77
2022/06/20 04:35:24;;;;;;;13.82;6.72;;;;;;;24.42;51.71;96066.59;6216938;23;20048;-77
2022/06/20 04:37:56;;;;;;;17.23;6.30;;;;;;;24.39;52.53;96075.13;6216535;23;20023;-77
2022/06/20 04:40:27;;;;;;;15.65;6.07;;;;;;;24.37;52.76;96068.50;6216337;23;20051;-77
2022/06/20 04:43:01;;;;;;;19.35;6.43;;;;;;;24.34;53.91;96064.53;6217017;23;20472;-76
2022/06/20 04:45:34;;;;;;;22.17;7.13;;;;;;;24.29;55.29;96077.09;6218087;23;20031;-76
2022/06/20 04:48:09;;;;;;;15.18;6.55;;;;;;;24.18;55.35;96079.91;6216780;23;20016;-76
2022/06/20 04:50:37;;;;;;;16.90;6.45;;;;;;;24.11;55.67;96087.41;6216705;23;20024;-76
2022/06/20 04:53:09;;;;;;;15.32;5.85;;;;;;;24.08;55.43;96093.31;6216089;23;20028;-76
2022/06/20 04:55:41;;;;;;;14.80;6.38;;;;;;;24.08;55.73;96101.28;6216971;23;20087;-76
2022/06/20 04:58:09;;;;;;;;;;;;;;;24.10;55.06;96112.47;6217009;23;20334;-76
2022/06/20 05:00:40;;;;;;;19.33;7.75;;;;;;;24.12;56.00;96118.31;6215932;23;19998;-76
2022/06/20 05:03:14;;;;;;;24.83;12.90;;;;;;;24.12;56.29;96123.66;6218252;23;20020;-76
2022/06/20 05:05:51;;;;;;;21.98;8.35;;;;;;;24.13;56.48;96127.09;6216303;23;20021;-77
2022/06/20 05:08:35;;;;;;;15.02;6.97;;;;;;;24.13;56.48;96117.22;6218614;23;20397;-77
2022/06/20 05:11:07;;;;;;;13.38;6.15;;;;;;;24.10;56.55;96117.81;6217230;23;20099;-76
2022/06/20 05:13:41;;;;;;;12.90;5.88;;;;;;;24.00;57.46;96133.84;6216802;23;20031;-76
2022/06/20 05:16:15;;;;;;;14.13;6.18;;;;;;;23.96;57.52;96135.50;6216927;23;20021;-76
2022/06/20 05:18:49;;;;;;;15.77;6.38;;;;;;;23.99;57.59;96129.63;6215838;23;20027;-76
2022/06/20 05:21:20;;;;;;;11.80;5.82;;;;;;;24.02;57.49;96142.38;6218319;23;20016;-76
2022/06/20 05:23:51;;;;;;;17.55;7.95;;;;;;;24.03;58.51;96139.44;6215636;23;20546;-76
2022/06/20 05:26:23;;;;;;;19.45;6.82;;;;;;;23.99;59.26;96133.06;6216889;23;20095;-77
2022/06/20 05:28:56;;;;;;;16.00;7.47;;;;;;;23.91;59.08;96130.22;6215342;23;20023;-77
2022/06/20 05:31:33;;;;;;;18.13;7.00;;;;;;;23.82;59.59;96136.13;6216284;23;20073;-78
2022/06/20 05:34:13;;;;;;;17.83;7.60;;;;;;;23.70;59.76;96134.84;6216537;23;20036;-78
2022/06/20 05:36:49;;;;;;;13.77;7.00;;;;;;;23.59;59.94;96144.75;6221579;23;20028;-78
2022/06/20 05:39:22;;;;;;;13.90;5.25;;;;;;;23.56;60.19;96188.72;6218586;23;20024;-76
2022/06/20 05:41:50;;;;;;;11.40;6.30;;;;;;;23.58;59.78;96177.81;6216146;23;20457;-77
2022/06/20 05:44:18;;;;;;;12.60;7.13;;;;;;;23.64;59.28;96221.97;6217790;23;20024;-78
2022/06/20 05:46:50;;;;;;;14.13;6.07;;;;;;;23.68;59.17;96233.66;6216123;23;20403;-77
2022/06/20 05:49:25;;;;;;;17.38;6.30;;;;;;;23.69;59.60;96187.31;6214218;23;20016;-77
2022/06/20 05:51:56;;;;;;;13.23;6.75;;;;;;;23.65;58.67;96167.63;6213486;23;20389;-77
2022/06/20 05:54:28;;;;;;;10.38;6.15;;;;;;;23.62;57.07;96134.38;6213817;23;20017;-78
2022/06/20 05:56:59;;;;;;;13.93;6.03;;;;;;;23.61;57.78;96147.94;6214194;23;20112;-77
2022/06/20 05:59:39;;;;;;;9.57;6.07;;;;;;;23.63;58.42;96140.47;6213927;23;20020;-78
2022/06/20 06:02:22;;;;;;;13.75;6.70;;;;;;;23.56;59.95;96148.00;6213168;23;20037;-77
2022/06/20 06:04:58;;;;;;;11.75;7.53;;;;;;;23.54;59.43;96152.78;6216168;23;20519;-77
2022/06/20 06:07:30;;;;;;;14.27;6.88;;;;;;;23.47;59.59;96153.09;6216035;23;20024;-78
2022/06/20 06:10:02;;;;;;;17.80;8.75;;;;;;;23.40;60.46;96136.66;6215973;23;20103;-78
2022/06/20 06:12:35;;;;;;;14.40;7.30;;;;;;;23.34;61.18;96138.53;6215465;23;20047;-79
2022/06/20 06:15:10;;;;;;;15.50;6.85;;;;;;;23.29;61.21;96133.25;6215631;23;20496;-78
2022/06/20 06:17:43;;;;;;;11.23;7.82;;;;;;;23.24;61.68;96143.88;6215599;23;20104;-78
2022/06/20 06:20:17;;;;;;;13.80;6.82;;;;;;;23.20;61.29;96140.22;6215547;23;20422;-78
2022/06/20 06:22:47;;;;;;;9.05;6.35;;;;;;;23.16;61.34;96160.44;6211696;22;20024;-79
2022/06/20 06:25:27;;;;;;;16.80;6.85;;;;;;;23.10;61.48;96169.50;6213154;23;20040;-79
2022/06/20 06:27:58;;;;;;;12.70;6.63;;;;;;;23.06;62.20;96184.41;6212732;23;20009;-79
2022/06/20 06:30:30;;;;;;;12.93;7.13;;;;;;;23.02;62.46;96184.16;6212553;23;20032;-79
2022/06/20 06:33:02;;;;;;;16.65;7.07;;;;;;;23.01;63.05;96190.56;6212890;23;20025;-81
2022/06/20 06:35:36;;;;;;;15.35;6.75;;;;;;;23.02;63.62;96184.97;6213816;23;20035;-82
2022/06/20 06:38:06;;;;;;;11.93;7.50;;;;;;;23.00;64.13;96170.31;6213591;23;20029;-81
2022/06/20 06:40:38;;;;;;;15.00;7.50;;;;;;;22.97;64.10;96166.31;6213159;23;20024;-82
2022/06/20 06:43:15;;;;;;;16.02;7.68;;;;;;;22.94;65.16;96168.75;6213644;23;20025;-82
2022/06/20 06:45:45;;;;;;;12.63;7.13;;;;;;;22.94;64.49;96169.53;6213568;23;20005;-81
2022/06/20 06:48:17;;;;;;;11.63;7.53;;;;;;;22.96;65.16;96162.09;6213442;23;20012;-82
2022/06/20 06:50:50;;;;;;;11.43;6.80;;;;;;;22.99;65.23;96161.53;6213423;23;20013;-81
2022/06/20 06:53:25;;;;;;;15.80;7.60;;;;;;;22.99;65.31;96158.88;6213261;23;20017;-82
2022/06/20 06:55:57;;;;;;;11.65;6.88;;;;;;;23.03;65.43;96157.28;6213505;23;20005;-81
2022/06/20 06:58:31;;;;;;;12.48;7.72;;;;;;;23.01;65.00;96148.78;6213657;23;20020;-82
2022/06/20 07:01:07;;;;;;;15.15;7.07;;;;;;;23.01;64.71;96146.13;6213454;23;20028;-82
2022/06/20 07:03:39;;;;;;;15.57;7.70;;;;;;;23.06;65.54;96165.78;6213393;23;20028;-81
2022/06/20 07:06:16;;;;;;;14.73;8.60;;;;;;;23.09;64.68;96179.38;6213446;23;20023;-82
2022/06/20 07:09:01;;;;;;;10.95;7.25;;;;;;;23.12;64.63;96192.09;6213424;23;20016;-81
2022/06/20 07:11:34;;;;;;;12.65;8.02;;;;;;;23.16;65.19;96245.59;6212087;23;20021;-80
2022/06/20 07:14:07;;;;;;;20.27;8.60;;;;;;;23.21;65.12;96240.25;6212828;23;20016;-79
2022/06/20 07:16:40;;;;;;;17.67;8.18;;;;;;;23.23;65.47;96192.88;6212434;23;20053;-78
2022/06/20 07:19:11;;;;;;;10.23;8.10;;;;;;;23.21;65.67;96165.72;6211962;23;20301;-79
2022/06/20 07:21:43;;;;;;;13.73;7.72;;;;;;;23.10;64.52;96186.25;6211905;23;20065;-79
2022/06/20 07:24:16;;;;;;;17.73;8.52;;;;;;;23.08;66.26;96215.00;6212567;23;20009;-79
2022/06/20 07:26:50;;;;;;;10.40;7.10;;;;;;;23.12;67.42;96247.19;6212893;23;20028;-79
2022/06/20 07:29:23;;;;;;;20.60;8.73;;;;;;;23.18;67.61;96244.25;6212652;23;20012;-79
2022/06/20 07:31:55;;;;;;;13.00;7.95;;;;;;;23.20;65.61;96230.69;6212285;23;20024;-81
2022/06/20 07:34:28;;;;;;;14.68;7.97;;;;;;;23.17;64.76;96196.63;6213148;23;20055;-82
2022/06/20 07:37:00;;;;;;;15.75;8.20;;;;;;;23.11;64.80;96171.91;6213041;23;20023;-81
2022/06/20 07:39:32;;;;;;;12.25;8.75;;;;;;;23.02;66.18;96179.66;6213118;23;20005;-83
2022/06/20 07:42:05;;;;;;;18.58;8.73;;;;;;;22.98;66.32;96178.56;6212880;23;20048;-82
2022/06/20 07:44:37;;;;;;;13.80;8.40;;;;;;;22.94;66.49;96182.03;6213187;23;20029;-81
2022/06/20 07:47:09;;;;;;;13.80;8.73;;;;;;;22.89;67.17;96187.34;6212930;23;20013;-81
2022/06/20 07:49:41;;;;;;;12.85;8.68;;;;;;;22.86;66.92;96188.69;6213075;23;20032;-82
2022/06/20 07:52:24;;;;;;;12.60;8.05;;;;;;;22.86;67.64;96186.03;6212337;23;20061;-81
2022/06/20 07:54:59;;;;;;;20.27;8.25;;;;;;;22.88;67.71;96193.75;6213127;23;20013;-81
2022/06/20 07:57:33;;;;;;;16.33;8.25;;;;;;;22.96;68.31;96191.34;6213181;23;20049;-81
2022/06/20 08:00:07;;;;;;;18.10;8.57;;;;;;;23.11;69.63;96197.69;6212620;23;20036;-81
2022/06/20 08:02:39;;;;;;;16.05;8.52;;;;;;;23.27;70.65;96191.25;6212757;23;20021;-82
2022/06/20 08:05:07;;;;;;;14.82;8.80;;;;;;;23.41;69.45;96194.91;6213075;23;20005;-81
2022/06/20 08:07:42;;;;;;;18.55;9.13;;;;;;;23.53;68.28;96188.47;6212967;23;20032;-81
2022/06/20 08:10:18;;;;;;;14.77;8.10;;;;;;;23.61;66.73;96190.53;6212446;23;20015;-81
2022/06/20 08:13:03;;;;;;;13.57;8.30;;;;;;;23.72;65.90;96202.72;6213054;23;20033;-82
2022/06/20 08:15:38;;;;;;;13.93;8.07;;;;;;;23.82;64.12;96210.69;6213156;23;20016;-81
2022/06/20 08:18:06;;;;;;;20.42;8.68;;;;;;;23.90;63.87;96209.34;6213050;23;20013;-81
2022/06/20 08:20:43;;;;;;;12.30;8.50;;;;;;;24.01;63.65;96223.38;6212727;23;20005;-81
2022/06/20 08:23:19;;;;;;;15.52;9.00;;;;;;;24.08;63.65;96221.19;6212673;23;20005;-82
2022/06/20 08:25:52;;;;;;;13.98;9.02;;;;;;;24.17;62.72;96234.72;6212981;23;20044;-82
2022/06/20 08:28:34;;;;;;;17.35;9.70;;;;;;;24.24;62.83;96241.31;6213100;23;20052;-81
2022/06/20 08:31:08;;;;;;;12.18;8.27;;;;;;;24.33;64.62;96252.19;6212492;23;20009;-81
2022/06/20 08:33:46;;;;;;;16.77;9.93;;;;;;;24.42;62.56;96265.72;6212994;23;20032;-82
2022/06/20 08:36:20;;;;;;;41.58;11.98;;;;;;;24.46;61.42;96269.41;6213054;23;20048;-81
2022/06/20 08:38:57;;;;;;;41.20;11.52;;;;;;;24.56;61.71;96279.25;6213052;23;20005;-82
2022/06/20 08:41:47;;;;;;;20.70;9.52;;;;;;;24.64;62.38;96275.97;6212747;23;20025;-82
2022/06/20 08:44:50;;;;;;;12.30;7.70;;;;;;;24.75;61.60;96276.66;6212909;23;20096;-81
2022/06/20 08:48:01;;;;;;;23.17;9.32;;;;;;;24.83;59.83;96274.19;6212811;23;20005;-82
2022/06/20 08:51:08;;;;;;;13.23;8.60;;;;;;;24.89;59.39;96272.28;6200417;23;20024;-82
2022/06/20 08:54:13;;;;;;;35.30;10.65;;;;;;;24.99;60.45;96276.72;6212865;23;20016;-79
2022/06/20 08:56:52;;;;;;;24.73;8.70;;;;;;;25.10;61.51;96275.53;6212206;23;20021;-80
2022/06/20 08:59:40;;;;;;;43.15;11.85;;;;;;;25.19;59.20;96263.22;6211956;23;20012;-79
2022/06/20 09:02:26;;;;;;;36.95;11.27;;;;;;;25.30;59.41;96269.25;6212286;23;20068;-78
2022/06/20 09:05:10;;;;;;;22.30;10.07;;;;;;;25.42;59.53;96277.63;6214485;23;20073;-79
2022/06/20 09:08:02;;;;;;;14.20;8.40;;;;;;;25.48;58.02;96268.47;6214414;23;20017;-80
2022/06/20 09:10:49;;;;;;;16.30;8.13;;;;;;;25.56;58.16;96258.25;6214214;23;20040;-79
2022/06/20 09:13:48;;;;;;;17.15;8.68;;;;;;;25.63;57.46;96259.50;6214277;23;20013;-79
2022/06/20 09:16:26;;;;;;;8.98;6.78;;;;;;;25.70;57.05;96264.47;6214136;23;20028;-79
2022/06/20 09:19:15;;;;;;;12.38;7.07;;;;;;;25.80;57.64;96267.03;6214622;23;20021;-79
2022/06/20 09:21:57;;;;;;;11.70;7.43;;;;;;;25.90;58.22;96263.44;6213996;23;20028;-79
2022/06/20 09:24:36;;;;;;;10.02;7.47;;;;;;;25.99;56.40;96264.38;6214537;23;20028;-80
2022/06/20 09:27:08;;;;;;;10.60;7.40;;;;;;;26.07;56.07;96260.28;6214601;23;20012;-79
2022/06/20 09:29:55;;;;;;;11.45;6.35;;;;;;;26.12;53.75;96259.41;6214546;23;20013;-79
2022/06/20 09:32:49;;;;;;;9.15;6.05;;;;;;;26.15;52.77;96254.28;6214218;23;20025;-79
2022/06/20 09:35:42;;;;;;;12.07;5.90;;;;;;;26.19;52.74;96257.94;6214385;23;20033;-79
2022/06/20 09:38:28;;;;;;;15.82;6.65;;;;;;;26.23;52.98;96242.91;6214347;23;20040;-80
2022/06/20 09:41:02;;;;;;;11.88;5.65;;;;;;;26.29;51.47;96249.00;6214076;23;20013;-79
2022/06/20 09:43:45;;;;;;;16.77;6.80;;;;;;;26.37;50.48;96250.19;6214337;23;20040;-80
2022/06/20 09:46:24;;;;;;;13.95;5.57;;;;;;;26.42;50.91;96253.59;6214326;23;20012;-79
2022/06/20 09:49:13;;;;;;;26.05;6.75;;;;;;;26.50;51.01;96260.16;6214405;23;20057;-80
2022/06/20 09:51:53;;;;;;;26.00;8.52;;;;;;;26.57;52.01;96254.47;6214202;23;20024;-80
2022/06/20 09:54:30;;;;;;;17.77;6.65;;;;;;;26.63;50.03;96254.09;6214218;23;20032;-79
2022/06/20 09:57:07;;;;;;;11.20;5.93;;;;;;;26.66;50.26;96256.19;6214411;23;20077;-80
2022/06/20 09:59:46;;;;;;;17.42;6.53;;;;;;;26.71;49.99;96256.09;6214405;23;20021;-80
2022/06/20 10:02:22;;;;;;;8.05;5.45;;;;;;;26.81;50.81;96254.34;6213990;23;20009;-80
2022/06/20 10:05:02;;;;;;;9.10;5.20;;;;;;;26.90;50.88;96248.00;6224287;23;20005;-80
2022/06/20 10:07:43;;;;;;;12.23;5.68;;;;;;;26.96;49.72;96259.44;6214306;23;20001;-80
2022/06/20 10:10:16;;;;;;;8.88;5.60;;;;;;;27.01;49.40;96259.31;6214402;23;20025;-80
2022/06/20 10:12:51;;;;;;;58.25;12.73;;;;;;;27.04;49.04;96261.41;6213910;23;20005;-80
2022/06/20 10:15:35;;;;;;;20.20;6.18;;;;;;;27.07;49.43;96258.16;6214079;23;20013;-80
2022/06/20 10:18:13;;;;;;;10.07;6.13;;;;;;;27.11;47.85;96261.00;6214263;23;20012;-80
2022/06/20 10:20:48;;;;;;;6.70;5.50;;;;;;;27.15;48.11;96263.91;6214121;23;20008;-79
2022/06/20 10:23:36;;;;;;;12.45;5.60;;;;;;;27.19;48.38;96260.31;6214112;22;20025;-80
2022/06/20 10:26:33;;;;;;;9.88;5.45;;;;;;;27.25;48.47;96264.53;6214313;23;20016;-80
2022/06/20 10:29:18;;;;;;;12.85;5.90;;;;;;;27.30;47.67;96283.16;6214248;23;20044;-80
2022/06/20 10:32:03;;;;;;;8.25;5.53;;;;;;;27.35;47.36;96279.59;6213860;23;20029;-80
2022/06/20 10:34:41;;;;;;;12.57;5.80;;;;;;;27.36;46.86;96270.47;6214290;23;20020;-79
2022/06/20 10:37:24;;;;;;;13.77;7.00;;;;;;;27.41;47.38;96273.06;6214297;23;20070;-80
2022/06/20 10:39:58;;;;;;;8.63;5.22;;;;;;;27.43;46.80;96265.50;6213929;23;20028;-80
2022/06/20 10:42:33;;;;;;;12.82;5.43;;;;;;;27.49;47.22;96264.31;6213961;23;20024;-80
2022/06/20 10:45:18;;;;;;;10.50;6.00;;;;;;;27.54;46.64;96258.06;6214061;23;20024;-80
2022/06/20 10:48:03;;;;;;;28.13;8.10;;;;;;;27.60;47.99;96262.25;6214085;23;20020;-80
2022/06/20 10:50:38;;;;;;;10.88;5.50;;;;;;;27.67;47.02;96261.84;6213978;23;20005;-82
2022/06/20 10:53:19;;;;;;;12.45;6.05;;;;;;;27.72;46.81;96256.34;6214029;23;20017;-82
2022/06/20 10:55:53;;;;;;;10.18;5.38;;;;;;;27.76;46.67;96257.34;6214105;23;20017;-82
2022/06/20 10:58:47;;;;;;;9.57;5.22;;;;;;;27.84;47.58;96256.66;6213937;23;20064;-82
2022/06/20 11:01:20;;;;;;;10.45;5.13;;;;;;;27.90;46.90;96249.28;6213857;23;20061;-82
2022/06/20 11:04:15;;;;;;;12.00;6.32;;;;;;;27.97;45.54;96257.75;6213966;23;20028;-82
2022/06/20 11:06:56;;;;;;;7.88;5.63;;;;;;;28.01;45.11;96252.53;6213995;23;20111;-82
2022/06/20 11:09:36;;;;;;;11.60;5.83;;;;;;;28.04;45.17;96246.59;6213910;23;20266;-81
2022/06/20 11:12:11;;;;;;;7.45;4.93;;;;;;;28.08;45.41;96258.31;6213779;23;20250;-82
2022/06/20 11:14:47;;;;;;;9.20;4.95;;;;;;;28.13;45.20;96255.50;6213785;23;20016;-82
2022/06/20 11:17:28;;;;;;;9.23;5.07;;;;;;;28.17;45.73;96253.81;6213797;23;20009;-79
2022/06/20 11:20:05;;;;;;;11.50;5.40;;;;;;;28.22;44.82;96259.03;6213162;23;20040;-79
2022/06/20 11:22:41;;;;;;;8.75;4.57;;;;;;;28.24;43.96;96256.84;6213293;23;20001;-80
2022/06/20 11:25:24;;;;;;;15.20;4.88;;;;;;;28.22;44.69;96259.03;6213790;23;20017;-80
2022/06/20 11:28:09;;;;;;;5.90;4.72;;;;;;;28.22;43.56;96256.34;6213548;23;20009;-82
2022/06/20 11:30:46;;;;;;;6.78;4.32;;;;;;;28.19;44.24;96256.97;6213795;23;20028;-82
2022/06/20 11:36:16;;;;;;;8.48;4.63;;;;;;;28.26;42.76;96249.28;6212353;23;20005;-82
2022/06/20 11:38:58;;;;;;;6.28;4.15;;;;;;;28.29;42.63;96248.66;6213582;23;20005;-79
2022/06/20 11:41:38;;;;;;;10.18;4.10;;;;;;;28.33;42.83;96249.66;6213027;23;20029;-79
2022/06/20 11:44:27;;;;;;;9.77;4.00;;;;;;;28.36;43.07;96245.59;6213346;23;20004;-79
2022/06/20 11:47:29;;;;;;;8.13;4.60;;;;;;;28.42;43.13;96254.28;6213265;23;20021;-79
2022/06/20 11:50:25;;;;;;;11.77;4.45;;;;;;;28.42;42.02;96251.63;6213475;23;20024;-82
2022/06/20 11:53:14;;;;;;;6.05;4.25;;;;;;;28.39;42.34;96262.97;6213448;23;20065;-82
2022/06/20 11:55:48;;;;;;;8.30;3.88;;;;;;;28.29;42.10;96259.41;6213479;23;20029;-82
2022/06/20 11:58:27;;;;;;;7.38;3.60;;;;;;;28.19;40.13;96265.03;6213724;23;20005;-81
2022/06/20 12:01:00;;;;;;;10.95;3.78;;;;;;;28.12;40.58;96267.34;6213442;23;20061;-82
2022/06/20 12:03:40;;;;;;;6.35;3.45;;;;;;;28.10;40.27;96269.53;6213313;23;20030;-82
2022/06/20 12:06:16;;;;;;;7.43;3.88;;;;;;;28.06;40.96;96271.22;6213561;23;20005;-82
2022/06/20 12:08:54;;;;;;;5.57;3.40;;;;;;;28.03;40.95;96269.94;6213932;23;20036;-82
2022/06/20 12:11:41;;;;;;;4.72;2.60;;;;;;;27.93;40.86;96276.31;6213629;23;20009;-81
2022/06/20 12:14:24;;;;;;;4.75;2.58;;;;;;;27.89;41.37;96283.34;6213331;23;20064;-82
2022/06/20 12:17:02;;;;;;;2.85;2.38;;;;;;;27.84;41.22;96282.66;6213574;23;20036;-82
2022/06/20 12:25:40;;;;;;;5.70;2.40;;;;;;;27.78;40.90;96297.25;6213707;23;20077;-82
2022/06/20 12:28:18;;;;;;;7.68;2.53;;;;;;;27.73;41.17;96298.94;6211884;23;20016;-82
2022/06/20 12:30:47;;;;;;;7.05;2.67;;;;;;;27.71;41.29;96308.38;6213364;23;20016;-81
2022/06/20 12:33:16;;;;;;;2.92;1.92;;;;;;;27.67;40.47;96305.50;6187872;23;20060;-81